Dell City, Texas
Current Conditions -  °F | °C
As of 7:51 AM on Sunday 21 Dec 2014 (Local Time) from KGDP Reporting Station
Clear Clear  
Wind Chill: 29°   Ceiling: Unl
Heat Index: 39°   Visibility: 10mi
Dew Point: 27°   Wind: 21mph
Humidity: 62%   Direction: 240°WSW
Pressure: 30.04"   Gusts: 29mph
Location:  31.94°N, 105.2°W
Report Text: KGDP 211451Z AUTO 24018G25KT 10SM CLR 04/M03 A3004 RMK AO2 SLP160 T00391028 50004
Loading
Personal Weather Stations






























Interactive Weather Map New forecast layout! Learn more

10-Day Weather Forecast

Advertisements
Track Severe Weather on mobile